Accueil
METAR-TAF:

METAR-TAF

Aéroports :

Aéroport Albert-Picardie

Albert, France

latitude: 49-58-21N, longitude: 002-41-29E, altitude: 111 m

Observation

Le bulletin a été fait il y a 37 minutes, à 06:30 UTC
Vent 5 kt de nord-est
Température 0°C
Humidité 93%
Pression 1032 hPa
Visibilité: 6000 m

METAR: LFAQ 240630Z AUTO 04005KT 6000 NSC 00/M01 Q1032 TEMPO 3000 BR

Heure: 08:07 (07:07 UTC)

Prévision

Le bulletin a été fait il y a 2 heures et 7 minutes, à 05:00 UTC
Prévision valable du 24 à 06 UTC au 24 à 15 UTC
Vent 4 kt de est/nord-est
Visibilité: 7000 m
Temporairement
du 24 à 06 UTC au 24 à 09 UTC
Visibilité: 3000 m
brume

TAF: LFAQ 240500Z 2406/2415 07004KT 7000 NSC TEMPO 2406/2409 3000 BR

Observations et prévisions météorologiques de plus de 4000 aéroports (messages METAR et TAF).

Les stations disponibles sont représentées par des disques jaunes et rouges sur la carte.

Passer la souris dessus pour voir le nom de la station.

Cliquer dessus pour voir les observations et prévisions météorologiques.

Pour changer de carte: cliquez sur les boutons verts avec une croix noire pour zoomer, sur le bouton vert avec un tiret pour effectuer un zoom arrière, ou sur les flèches vertes pour les cartes adjacentes.


METAR-TAF: